Time;durP1;ratioP1;P1;durP2;ratioP2;P2;SDS_P1;SDS_P2;PMS_P1;PMS_P2;Temp;Humidity;BMP_temperature;BMP_pressure;BME280_temperature;BME280_humidity;BME280_pressure;Samples;Min_cycle;Max_cycle;Signal;HPM_P1;HPM_P2
2021/05/24 00:00:46;;;;;;;6.43;4.93;;;;;;;9.85;86.22;101040.47;5003095;28;20141;-68
2021/05/24 00:03:13;;;;;;;9.27;4.13;;;;;;;9.91;85.75;101034.94;4980947;28;20030;-69
2021/05/24 00:05:41;;;;;;;6.15;4.57;;;;;;;10.10;85.44;101040.97;5021406;28;20091;-69
2021/05/24 00:08:08;;;;;;;9.52;4.28;;;;;;;10.10;84.67;101042.75;4977878;28;20060;-69
2021/05/24 00:10:37;;;;;;;6.82;4.15;;;;;;;10.03;84.84;101042.19;4986193;28;20046;-69
2021/05/24 00:13:08;;;;;;;5.38;4.45;;;;;;;10.04;85.35;101040.41;5003033;28;20093;-69
2021/05/24 00:15:41;;;;;;;7.57;5.10;;;;;;;10.02;85.60;101042.28;4984675;28;20145;-69
2021/05/24 00:18:08;;;;;;;7.65;4.47;;;;;;;10.05;85.82;101035.09;4989327;28;20054;-69
2021/05/24 00:20:38;;;;;;;6.63;4.43;;;;;;;9.96;85.69;101034.69;4981244;28;20104;-69
2021/05/24 00:23:05;;;;;;;6.78;4.72;;;;;;;10.04;85.83;101036.03;4984136;28;20058;-71
2021/05/24 00:25:32;;;;;;;6.43;4.43;;;;;;;9.97;86.45;101034.59;4993791;28;20423;-71
2021/05/24 00:28:00;;;;;;;5.95;3.53;;;;;;;9.89;86.15;101027.09;4987639;28;20058;-69
2021/05/24 00:30:32;;;;;;;5.57;4.07;;;;;;;9.94;86.09;101018.97;4990200;28;20050;-70
2021/05/24 00:33:00;;;;;;;5.18;4.03;;;;;;;9.88;86.56;101021.91;5009948;28;20120;-69
2021/05/24 00:35:27;;;;;;;7.53;4.35;;;;;;;9.87;86.71;101014.97;5009999;28;20058;-68
2021/05/24 00:37:55;;;;;;;6.07;4.50;;;;;;;9.86;87.64;101011.50;4988843;28;20141;-68
2021/05/24 00:40:22;;;;;;;4.63;3.58;;;;;;;9.90;87.26;101002.50;4984204;28;20095;-69
2021/05/24 00:42:49;;;;;;;5.10;3.35;;;;;;;9.88;86.99;101009.63;4972702;28;20049;-69
2021/05/24 00:45:16;;;;;;;7.35;4.25;;;;;;;9.77;88.01;100997.91;5010566;28;20072;-70
2021/05/24 00:47:44;;;;;;;6.63;3.95;;;;;;;9.74;88.48;100998.94;5006508;28;20057;-70
2021/05/24 00:50:11;;;;;;;6.28;4.05;;;;;;;9.60;88.47;100999.63;4975113;28;20076;-68
2021/05/24 00:52:38;;;;;;;5.10;3.40;;;;;;;9.51;88.97;100989.56;5005009;28;20056;-69
2021/05/24 00:55:07;;;;;;;3.70;3.10;;;;;;;9.64;88.73;100981.94;4973463;28;20054;-71
2021/05/24 00:57:35;;;;;;;6.68;3.60;;;;;;;9.66;89.33;100985.31;4988864;28;20184;-68
2021/05/24 01:00:07;;;;;;;7.05;3.90;;;;;;;9.53;89.59;100985.06;5008172;28;20058;-69
2021/05/24 01:02:35;;;;;;;4.88;4.05;;;;;;;9.60;89.36;100980.38;4977922;28;20090;-69
2021/05/24 01:05:03;;;;;;;7.68;3.72;;;;;;;9.28;90.31;100974.91;5009000;28;20073;-69
2021/05/24 01:07:30;;;;;;;5.32;4.05;;;;;;;9.49;90.70;100972.16;5001784;28;20061;-69
2021/05/24 01:09:58;;;;;;;8.77;4.00;;;;;;;9.39;90.63;100972.59;4990280;28;20138;-69
2021/05/24 01:12:26;;;;;;;10.82;4.82;;;;;;;9.43;89.51;100970.69;5010229;28;20511;-70
2021/05/24 01:14:53;;;;;;;6.75;3.72;;;;;;;9.45;89.97;100960.06;5000889;28;20495;-69
2021/05/24 01:17:21;;;;;;;6.60;4.28;;;;;;;9.38;90.60;100967.41;4985512;28;20532;-70
2021/05/24 01:19:48;;;;;;;6.22;4.95;;;;;;;9.23;90.94;100965.50;4986331;28;20049;-69
2021/05/24 01:22:18;;;;;;;7.20;4.65;;;;;;;9.33;90.36;100964.16;4990173;28;20050;-69
2021/05/24 01:24:46;;;;;;;10.32;4.70;;;;;;;9.32;90.42;100965.06;4995085;28;20088;-69
2021/05/24 01:27:13;;;;;;;5.88;4.50;;;;;;;9.24;90.14;100965.47;5003984;28;20053;-69
2021/05/24 01:29:41;;;;;;;6.40;5.25;;;;;;;9.28;90.38;100966.16;4987775;28;20598;-71
2021/05/24 01:32:08;;;;;;;5.90;4.75;;;;;;;9.28;90.24;100964.41;4984095;28;20149;-69
2021/05/24 01:34:35;;;;;;;5.30;4.20;;;;;;;9.28;90.47;100967.03;4993816;28;20061;-70
2021/05/24 01:37:04;;;;;;;5.60;4.57;;;;;;;9.27;90.24;100964.44;4989070;28;20706;-69
2021/05/24 01:39:31;;;;;;;4.97;4.30;;;;;;;9.25;90.77;100968.94;5003954;28;20482;-69
2021/05/24 01:41:58;;;;;;;6.18;4.68;;;;;;;9.17;90.83;100969.28;4987132;28;20145;-69
2021/05/24 01:44:46;;;;;;;5.45;4.38;;;;;;;9.06;91.50;100968.97;4989130;28;20419;-68
2021/05/24 01:47:14;;;;;;;7.00;4.28;;;;;;;9.11;91.19;100970.44;5002010;28;20463;-70
2021/05/24 01:49:47;;;;;;;7.03;4.75;;;;;;;9.12;91.59;100961.63;5005996;28;20081;-70
2021/05/24 01:52:15;;;;;;;5.85;4.30;;;;;;;9.10;92.22;100967.91;5004738;28;20460;-69
2021/05/24 01:54:43;;;;;;;5.53;4.30;;;;;;;9.13;91.80;100973.84;4991042;28;20058;-69
2021/05/24 01:57:11;;;;;;;6.15;4.25;;;;;;;9.06;92.94;100963.72;4998729;28;20068;-68
2021/05/24 01:59:39;;;;;;;7.30;4.13;;;;;;;9.09;92.37;100966.16;5002233;28;20054;-68
2021/05/24 02:02:06;;;;;;;4.82;3.97;;;;;;;9.05;92.12;100965.50;5000758;28;20054;-68
2021/05/24 02:04:37;;;;;;;5.55;4.30;;;;;;;9.05;93.13;100969.88;4992818;28;20066;-68
2021/05/24 02:07:04;;;;;;;6.80;4.10;;;;;;;9.04;92.02;100958.50;5078302;28;20050;-68
2021/05/24 02:09:31;;;;;;;4.82;4.05;;;;;;;9.01;92.70;100968.34;5005612;28;20133;-69
2021/05/24 02:11:59;;;;;;;9.00;3.85;;;;;;;9.00;92.63;100958.72;5008692;28;20160;-68
2021/05/24 02:14:26;;;;;;;5.93;4.20;;;;;;;8.98;92.49;100958.81;5007274;28;20534;-70
2021/05/24 02:16:54;;;;;;;6.38;4.57;;;;;;;8.93;92.75;100958.19;5003584;28;20107;-69
2021/05/24 02:19:22;;;;;;;7.55;3.90;;;;;;;8.93;92.52;100957.34;4989481;28;20050;-69
2021/05/24 02:21:50;;;;;;;8.52;4.20;;;;;;;8.84;93.20;100966.47;4987675;28;20134;-69
2021/05/24 02:33:06;;;;;;;6.18;3.92;;;;;;;8.55;94.90;100958.16;5011552;28;20049;-68
2021/05/24 02:35:34;;;;;;;6.68;4.28;;;;;;;8.58;95.57;100950.16;4980958;28;20107;-69
2021/05/24 02:38:02;;;;;;;4.45;3.45;;;;;;;8.59;94.88;100949.22;4985785;28;20067;-69
2021/05/24 02:40:30;;;;;;;5.85;3.92;;;;;;;8.61;95.69;100952.63;4970927;28;20504;-69
2021/05/24 02:42:58;;;;;;;7.75;4.53;;;;;;;8.58;95.38;100955.41;5001081;28;20046;-69
2021/05/24 02:45:25;;;;;;;4.88;4.38;;;;;;;8.63;95.08;100949.94;4970674;28;20042;-69
2021/05/24 02:47:52;;;;;;;6.55;4.32;;;;;;;8.58;95.02;100955.41;4969738;28;20060;-69
2021/05/24 02:50:23;;;;;;;7.63;4.53;;;;;;;8.54;95.78;100945.97;4986855;28;20106;-69
2021/05/24 02:52:52;;;;;;;4.00;3.60;;;;;;;8.54;95.25;100951.19;5003484;28;20472;-68
2021/05/24 02:55:19;;;;;;;7.63;4.45;;;;;;;8.60;95.35;100945.69;4987228;28;20054;-70
2021/05/24 02:57:47;;;;;;;5.25;4.05;;;;;;;8.55;94.91;100950.28;5003478;28;20153;-69
2021/05/24 03:04:25;;;;;;;5.95;4.72;;;;;;;8.57;95.00;100945.81;4991508;28;20226;-69
2021/05/24 03:06:53;;;;;;;6.35;4.10;;;;;;;8.58;95.37;100952.78;4965618;28;20464;-69
2021/05/24 03:09:20;;;;;;;5.32;4.15;;;;;;;8.59;95.15;100948.38;4985398;28;20178;-68
2021/05/24 03:11:48;;;;;;;5.80;4.40;;;;;;;8.54;94.89;100945.97;4998500;28;20417;-69
2021/05/24 03:14:15;;;;;;;5.22;4.53;;;;;;;8.56;95.71;100949.38;5000414;28;20146;-69
2021/05/24 03:16:43;;;;;;;6.63;4.43;;;;;;;8.56;95.38;100944.13;5004520;28;20064;-68
2021/05/24 03:19:10;;;;;;;6.35;4.38;;;;;;;8.60;94.44;100950.94;4969587;28;20177;-69
2021/05/24 03:21:37;;;;;;;5.03;3.95;;;;;;;8.72;94.27;100952.13;5000436;28;20077;-68
2021/05/24 03:24:06;;;;;;;6.05;4.40;;;;;;;8.67;94.13;100958.53;5000550;28;20152;-68
2021/05/24 03:26:33;;;;;;;6.03;4.80;;;;;;;8.77;93.38;100959.81;4988629;28;20578;-70
2021/05/24 03:29:01;;;;;;;8.15;4.97;;;;;;;8.68;93.00;100955.81;4986449;28;20546;-70
2021/05/24 03:31:28;;;;;;;5.13;3.95;;;;;;;8.72;93.51;100956.53;4999696;28;20079;-70
2021/05/24 03:33:56;;;;;;;6.72;3.95;;;;;;;8.81;92.47;100956.97;4987609;28;20050;-70
2021/05/24 03:36:24;;;;;;;5.32;3.55;;;;;;;8.85;92.57;100952.44;4988089;28;20050;-70
2021/05/24 03:43:04;;;;;;;5.57;3.67;;;;;;;8.82;92.22;100960.44;5002729;28;20045;-71
2021/05/24 03:45:35;;;;;;;5.32;4.03;;;;;;;8.95;90.84;100968.59;5044126;28;20277;-70
2021/05/24 03:48:02;;;;;;;6.63;4.00;;;;;;;8.91;90.71;100949.50;5003483;28;20125;-71
2021/05/24 03:50:30;;;;;;;4.88;3.90;;;;;;;8.97;89.96;100954.50;4987283;28;20054;-70
2021/05/24 03:52:57;;;;;;;5.35;4.15;;;;;;;8.99;90.24;100951.78;5004171;28;20049;-69
2021/05/24 03:55:24;;;;;;;6.85;3.97;;;;;;;9.04;89.41;100955.88;4997460;28;20149;-70
2021/05/24 03:57:53;;;;;;;5.97;3.63;;;;;;;9.15;88.87;100950.16;5001230;28;20565;-70
2021/05/24 04:00:21;;;;;;;7.10;4.03;;;;;;;9.22;88.43;100954.16;5003912;28;20121;-70
2021/05/24 04:02:48;;;;;;;4.97;3.67;;;;;;;9.28;88.16;100950.41;4969004;28;20416;-70
2021/05/24 04:05:21;;;;;;;7.95;4.00;;;;;;;9.33;87.65;100954.50;4993303;28;20476;-69
2021/05/24 04:07:52;;;;;;;4.25;3.42;;;;;;;9.45;87.38;100954.81;4964840;28;20137;-70
2021/05/24 04:10:21;;;;;;;5.32;3.45;;;;;;;9.49;87.28;100964.25;5006907;28;20046;-70
2021/05/24 04:12:49;;;;;;;4.72;3.80;;;;;;;9.54;86.23;100962.25;4997178;28;20133;-69
2021/05/24 04:15:17;;;;;;;6.20;3.97;;;;;;;9.71;86.09;100956.16;4994457;28;20081;-70
2021/05/24 04:17:46;;;;;;;7.15;3.80;;;;;;;9.83;84.62;100958.19;4999933;28;20638;-70
2021/05/24 04:20:14;;;;;;;3.85;3.33;;;;;;;10.03;83.26;100959.78;5038135;28;20141;-71
2021/05/24 04:22:42;;;;;;;5.35;3.72;;;;;;;10.41;81.87;100951.75;4999355;28;20495;-70
2021/05/24 04:25:10;;;;;;;4.65;3.58;;;;;;;11.81;77.65;100950.91;5001500;28;20463;-69
2021/05/24 04:27:38;;;;;;;6.05;3.20;;;;;;;13.80;68.32;100943.69;4986501;28;20049;-71
2021/05/24 04:30:07;;;;;;;2.95;2.33;;;;;;;15.50;61.30;100958.19;5083542;28;20069;-72
2021/05/24 04:32:34;;;;;;;3.63;2.53;;;;;;;16.51;56.63;100950.47;5005906;28;20520;-69
2021/05/24 04:35:02;;;;;;;7.03;2.75;;;;;;;17.71;52.14;100940.66;5000541;28;20046;-69
2021/05/24 04:37:29;;;;;;;4.88;2.63;;;;;;;18.35;49.66;100952.19;5014586;28;20141;-71
2021/05/24 04:39:57;;;;;;;3.72;2.40;;;;;;;19.10;47.52;100948.28;5000304;28;20105;-71
2021/05/24 04:42:24;;;;;;;2.50;2.08;;;;;;;19.66;46.04;100952.97;5005363;28;20052;-71
2021/05/24 04:44:52;;;;;;;3.38;2.03;;;;;;;20.73;43.40;100948.22;5004220;28;20060;-70
2021/05/24 04:47:19;;;;;;;7.43;1.88;;;;;;;20.89;42.22;100943.09;4983548;28;20499;-69
2021/05/24 04:49:52;;;;;;;4.05;2.15;;;;;;;21.44;40.77;100939.50;5001962;28;20624;-69
2021/05/24 04:52:19;;;;;;;3.92;2.10;;;;;;;21.24;40.23;100941.44;5001384;28;20050;-70
2021/05/24 04:54:46;;;;;;;2.67;2.00;;;;;;;21.78;39.09;100944.97;4989416;28;20047;-70
2021/05/24 04:57:14;;;;;;;3.65;2.42;;;;;;;22.88;37.38;100936.25;4990225;28;20503;-70
2021/05/24 04:59:41;;;;;;;2.35;1.77;;;;;;;22.36;37.62;100941.72;4986067;28;20137;-71
2021/05/24 05:02:08;;;;;;;4.45;2.45;;;;;;;22.52;37.27;100940.97;4999204;28;20050;-69
2021/05/24 05:04:36;;;;;;;2.72;1.90;;;;;;;23.33;35.87;100935.06;4985229;28;20050;-70
2021/05/24 05:07:03;;;;;;;3.05;2.08;;;;;;;23.41;35.38;100943.09;5003036;28;20111;-72
2021/05/24 05:09:30;;;;;;;3.83;2.38;;;;;;;23.75;34.68;100934.94;4975983;28;20141;-68
2021/05/24 05:11:57;;;;;;;2.85;2.00;;;;;;;23.85;34.83;100937.44;5001015;28;20407;-69
2021/05/24 05:14:25;;;;;;;3.33;2.10;;;;;;;24.50;33.14;100944.59;4976996;28;20118;-69
2021/05/24 05:16:52;;;;;;;4.32;2.08;;;;;;;25.01;32.58;100942.31;4999597;28;20056;-69
2021/05/24 05:19:20;;;;;;;7.68;1.98;;;;;;;25.80;31.39;100950.25;4982722;28;20042;-69
2021/05/24 05:21:48;;;;;;;2.70;2.03;;;;;;;26.04;30.21;100951.91;4995025;28;20212;-70
2021/05/24 05:24:16;;;;;;;3.10;2.17;;;;;;;25.62;30.87;100951.41;5011308;28;20054;-68
2021/05/24 05:26:44;;;;;;;3.70;1.67;;;;;;;25.92;30.29;100952.31;4982089;28;20067;-69
2021/05/24 05:29:11;;;;;;;4.88;1.90;;;;;;;26.00;30.39;100963.06;5002829;28;20050;-68
2021/05/24 05:31:38;;;;;;;2.65;1.80;;;;;;;25.31;30.86;100956.84;5007236;28;20045;-69
2021/05/24 05:34:06;;;;;;;9.02;1.80;;;;;;;26.18;29.70;100968.09;4999878;28;20073;-70
2021/05/24 05:36:34;;;;;;;5.18;2.00;;;;;;;26.51;28.96;100951.56;4990304;28;20058;-70
2021/05/24 05:39:01;;;;;;;2.33;1.48;;;;;;;26.56;29.12;100951.84;5001697;28;21133;-70
2021/05/24 05:41:28;;;;;;;3.13;1.85;;;;;;;26.45;29.22;100955.88;4988679;28;20042;-70
2021/05/24 05:43:55;;;;;;;3.58;1.60;;;;;;;26.56;29.17;100967.22;4986929;28;20069;-69
2021/05/24 05:46:22;;;;;;;4.57;2.00;;;;;;;27.32;28.16;100956.97;4965090;28;20050;-70
2021/05/24 05:48:50;;;;;;;1.95;1.50;;;;;;;26.95;28.05;100961.50;4982218;28;20048;-71
2021/05/24 05:51:17;;;;;;;2.60;1.60;;;;;;;27.19;27.76;100969.28;5005331;28;20061;-68
2021/05/24 05:53:44;;;;;;;3.40;1.80;;;;;;;27.62;27.12;100957.69;4989259;28;20050;-72
2021/05/24 05:56:11;;;;;;;3.55;1.75;;;;;;;27.90;26.52;100961.28;5003658;28;20465;-70
2021/05/24 05:58:38;;;;;;;3.28;1.20;;;;;;;27.99;26.96;100960.09;5002547;28;20521;-70
2021/05/24 06:01:06;;;;;;;3.28;1.98;;;;;;;28.56;25.63;100960.09;4987633;28;20065;-69
2021/05/24 06:03:33;;;;;;;2.33;1.73;;;;;;;28.35;25.77;100966.41;4987862;28;20046;-70
2021/05/24 06:06:01;;;;;;;3.70;1.33;;;;;;;28.46;25.72;100982.97;5000242;28;20058;-69
2021/05/24 06:08:28;;;;;;;4.10;1.63;;;;;;;28.17;26.08;100969.59;5000851;28;20046;-70
2021/05/24 06:10:58;;;;;;;3.22;1.55;;;;;;;27.99;25.71;100968.22;4989360;28;20050;-70
2021/05/24 06:13:25;;;;;;;2.05;1.33;;;;;;;27.96;26.28;100971.34;5004805;28;20042;-70
2021/05/24 06:15:53;;;;;;;2.70;1.42;;;;;;;28.48;25.51;100977.34;4993514;28;20051;-69
2021/05/24 06:18:21;;;;;;;3.03;1.23;;;;;;;27.61;26.62;100972.25;5007559;28;20109;-70
2021/05/24 06:20:48;;;;;;;6.03;1.75;;;;;;;28.66;25.35;100971.41;5004995;28;20060;-70
2021/05/24 06:23:16;;;;;;;2.05;1.13;;;;;;;28.39;25.35;100965.00;4961757;28;20053;-71
2021/05/24 06:25:44;;;;;;;2.20;1.58;;;;;;;28.88;25.00;100974.84;4973344;28;20072;-69
2021/05/24 06:28:12;;;;;;;1.95;1.30;;;;;;;28.93;24.87;100965.06;5003989;28;20064;-71
2021/05/24 06:30:39;;;;;;;4.93;1.60;;;;;;;29.08;24.53;100975.75;4993370;28;20083;-69
2021/05/24 06:33:07;;;;;;;5.00;1.45;;;;;;;28.78;25.02;100980.63;4992344;28;20038;-70
2021/05/24 06:35:34;;;;;;;1.80;1.20;;;;;;;28.34;25.11;100972.84;5012656;28;20077;-70
2021/05/24 06:38:02;;;;;;;2.65;1.65;;;;;;;28.89;25.29;100979.22;4988567;28;20057;-69
2021/05/24 06:40:29;;;;;;;2.97;1.45;;;;;;;28.84;24.87;100977.09;5067964;28;20145;-73
2021/05/24 06:42:56;;;;;;;2.55;1.60;;;;;;;28.43;25.75;100974.41;4986092;28;20531;-70
2021/05/24 06:45:23;;;;;;;2.17;1.60;;;;;;;29.01;24.88;100978.47;4986133;28;20046;-71
2021/05/24 06:47:51;;;;;;;5.95;1.80;;;;;;;29.29;24.37;100966.66;4998629;28;20325;-70
2021/05/24 06:50:18;;;;;;;3.85;1.58;;;;;;;28.77;25.52;100974.38;5058836;28;20050;-69
2021/05/24 06:52:45;;;;;;;3.05;1.50;;;;;;;29.59;23.87;100959.03;5059814;28;20069;-70
2021/05/24 06:55:12;;;;;;;3.67;1.42;;;;;;;30.42;23.44;100961.28;5005215;28;20053;-69
2021/05/24 06:57:40;;;;;;;2.38;1.33;;;;;;;29.85;23.55;100960.91;5002580;28;20535;-70
2021/05/24 07:00:11;;;;;;;2.50;1.67;;;;;;;29.26;24.55;100961.63;5004389;28;20137;-69
2021/05/24 07:02:42;;;;;;;3.92;2.20;;;;;;;28.54;25.42;100962.97;4982288;28;20133;-70
2021/05/24 07:05:10;;;;;;;4.72;1.50;;;;;;;30.07;23.50;100961.50;4986236;28;20302;-71
2021/05/24 07:07:38;;;;;;;3.78;2.38;;;;;;;30.81;22.50;100964.97;4998881;28;20049;-70
2021/05/24 07:10:06;;;;;;;1.90;1.23;;;;;;;30.37;22.92;100956.50;4981756;28;20695;-70
2021/05/24 07:12:34;;;;;;;6.70;1.40;;;;;;;30.51;22.72;100951.84;4985440;28;20133;-69
2021/05/24 07:15:03;;;;;;;2.45;1.27;;;;;;;30.16;23.55;100948.59;4983944;28;20050;-70
2021/05/24 07:17:31;;;;;;;2.17;1.30;;;;;;;30.09;23.82;100945.88;5004671;28;20050;-71
2021/05/24 07:20:01;;;;;;;2.72;1.48;;;;;;;31.39;21.81;100938.53;5048159;28;20049;-69
2021/05/24 07:22:28;;;;;;;2.60;1.40;;;;;;;32.10;21.11;100942.75;4985673;28;20049;-69
2021/05/24 07:24:56;;;;;;;2.00;1.48;;;;;;;31.61;21.67;100941.72;4999681;28;20615;-70
2021/05/24 07:27:24;;;;;;;3.45;1.38;;;;;;;32.06;21.30;100938.81;5002038;28;20456;-69
2021/05/24 07:29:51;;;;;;;2.45;1.70;;;;;;;31.73;21.20;100926.31;5001268;28;20463;-69
2021/05/24 07:32:18;;;;;;;2.10;1.30;;;;;;;31.78;21.75;100918.31;4968276;28;20052;-72
2021/05/24 07:34:45;;;;;;;2.58;1.38;;;;;;;32.40;20.62;100923.00;4990922;28;20137;-69
2021/05/24 07:37:13;;;;;;;3.88;1.45;;;;;;;32.70;20.63;100921.16;4998415;28;20105;-70
2021/05/24 07:39:40;;;;;;;2.50;1.30;;;;;;;31.92;20.89;100919.03;4990029;28;20108;-68
2021/05/24 07:42:07;;;;;;;2.22;1.35;;;;;;;32.32;20.80;100912.34;4986057;28;20054;-70
2021/05/24 07:44:34;;;;;;;1.85;1.35;;;;;;;32.26;20.85;100920.38;4998715;28;20077;-69
2021/05/24 07:47:03;;;;;;;3.85;1.38;;;;;;;32.83;19.78;100913.84;4979646;28;20046;-71
2021/05/24 07:49:30;;;;;;;1.77;1.20;;;;;;;31.25;21.65;100910.56;4984597;28;20099;-71
2021/05/24 07:51:57;;;;;;;2.17;1.15;;;;;;;31.88;20.51;100909.69;5002264;28;20137;-70
2021/05/24 07:54:25;;;;;;;2.70;1.25;;;;;;;31.89;20.50;100910.53;4999393;28;20046;-70
2021/05/24 07:56:52;;;;;;;3.08;1.33;;;;;;;30.58;21.76;100905.66;4965796;28;20364;-70
2021/05/24 07:59:19;;;;;;;5.05;1.20;;;;;;;30.69;22.20;100910.41;5004475;28;20147;-70
2021/05/24 08:01:46;;;;;;;2.30;1.08;;;;;;;30.39;22.45;100896.50;5003560;28;20203;-72
2021/05/24 08:04:13;;;;;;;3.00;1.15;;;;;;;30.93;21.55;100897.97;4975502;28;20047;-70
2021/05/24 08:06:41;;;;;;;2.15;1.02;;;;;;;30.68;21.18;100896.00;4999007;28;20046;-70
2021/05/24 08:09:08;;;;;;;2.97;0.90;;;;;;;30.73;20.90;100885.31;5000202;28;20055;-70
2021/05/24 08:11:35;;;;;;;2.03;0.68;;;;;;;31.02;20.44;100896.66;4998473;28;20054;-68
2021/05/24 08:14:03;;;;;;;3.25;1.17;;;;;;;29.99;21.89;100900.16;4983040;28;20077;-71
2021/05/24 08:16:30;;;;;;;3.10;1.00;;;;;;;30.25;20.64;100893.84;5003541;28;20140;-71
2021/05/24 08:18:57;;;;;;;3.63;1.27;;;;;;;30.61;20.44;100889.72;4999318;28;20137;-70
2021/05/24 08:21:24;;;;;;;2.55;0.88;;;;;;;30.33;21.99;100892.78;5000778;28;20067;-70
2021/05/24 08:23:52;;;;;;;1.98;1.00;;;;;;;29.76;21.71;100887.00;4984993;28;20065;-71
2021/05/24 08:26:19;;;;;;;4.95;1.05;;;;;;;30.72;20.61;100891.81;4983984;28;20115;-70
2021/05/24 08:28:46;;;;;;;3.22;0.70;;;;;;;28.67;22.65;100883.66;5000579;28;20089;-69
2021/05/24 08:31:13;;;;;;;2.80;1.13;;;;;;;26.46;24.93;100876.53;5001666;28;20062;-70
2021/05/24 08:33:41;;;;;;;1.42;0.85;;;;;;;24.87;28.41;100875.75;5007158;28;20053;-71
2021/05/24 08:36:09;;;;;;;3.10;1.08;;;;;;;24.02;29.62;100881.78;5003368;28;20070;-71
2021/05/24 08:38:36;;;;;;;3.20;0.93;;;;;;;24.07;30.26;100874.03;4995127;28;20338;-71
2021/05/24 08:41:07;;;;;;;3.20;0.80;;;;;;;23.71;30.45;100878.97;4983461;28;20081;-73
2021/05/24 08:43:38;;;;;;;5.05;1.27;;;;;;;22.90;32.11;100866.31;5001779;28;20060;-71
2021/05/24 08:46:06;;;;;;;1.55;0.95;;;;;;;21.69;34.47;100865.53;5007774;28;20046;-71
2021/05/24 08:48:34;;;;;;;4.18;0.90;;;;;;;21.34;35.03;100861.88;4971652;28;20053;-69
2021/05/24 08:51:03;;;;;;;4.53;0.80;;;;;;;21.40;33.92;100860.44;5003005;28;20415;-70
2021/05/24 08:53:31;;;;;;;5.55;1.08;;;;;;;21.80;33.24;100854.56;5002481;28;20453;-71
2021/05/24 08:55:59;;;;;;;5.10;0.80;;;;;;;21.83;32.03;100846.19;4996381;28;20491;-69
2021/05/24 08:58:26;;;;;;;1.10;0.65;;;;;;;22.07;31.63;100842.00;4990329;28;20487;-70
2021/05/24 09:00:53;;;;;;;5.93;1.00;;;;;;;21.84;31.63;100841.66;5002272;28;20042;-71
2021/05/24 09:03:25;;;;;;;1.90;0.82;;;;;;;21.66;31.83;100834.53;4988287;28;20049;-71
2021/05/24 09:05:53;;;;;;;1.98;0.70;;;;;;;22.24;31.52;100828.53;4987362;28;20146;-70
2021/05/24 09:08:36;;;;;;;2.90;0.90;;;;;;;22.74;30.49;100833.03;4990020;28;20054;-70
2021/05/24 09:11:04;;;;;;;8.38;1.00;;;;;;;22.56;30.30;100818.03;4989399;28;20054;-71
2021/05/24 09:13:33;;;;;;;1.58;0.77;;;;;;;22.58;30.36;100827.63;5009624;28;20049;-70
2021/05/24 09:16:04;;;;;;;9.45;1.00;;;;;;;22.13;30.68;100819.91;5004978;28;20398;-71
2021/05/24 09:18:31;;;;;;;2.75;0.70;;;;;;;22.12;31.13;100826.28;4993259;28;20348;-70
2021/05/24 09:20:59;;;;;;;3.47;1.10;;;;;;;22.32;30.36;100822.34;5009009;28;20088;-71
2021/05/24 09:23:32;;;;;;;2.28;0.90;;;;;;;21.91;31.29;100823.97;5017146;28;20049;-74
2021/05/24 09:26:03;;;;;;;1.83;0.80;;;;;;;22.20;30.96;100823.66;5001884;28;20056;-69
2021/05/24 09:28:35;;;;;;;2.85;1.02;;;;;;;21.61;31.97;100826.09;4983182;28;20179;-71
2021/05/24 09:31:09;;;;;;;3.58;0.82;;;;;;;21.27;32.25;100822.47;4967883;28;20049;-69
2021/05/24 09:33:38;;;;;;;1.92;0.93;;;;;;;21.16;32.70;100820.88;5005076;28;20042;-71
2021/05/24 09:36:06;;;;;;;1.80;0.70;;;;;;;20.52;33.26;100830.78;4990348;28;20125;-72
2021/05/24 09:38:49;;;;;;;2.08;0.73;;;;;;;21.79;31.77;100811.81;5004928;28;20140;-71
2021/05/24 09:41:24;;;;;;;6.78;1.13;;;;;;;22.40;30.65;100808.97;4986284;28;20054;-71
2021/05/24 09:43:53;;;;;;;0.83;0.60;;;;;;;22.52;30.37;100793.41;4976547;28;20141;-71
2021/05/24 09:46:29;;;;;;;1.30;0.60;;;;;;;22.69;30.41;100808.50;4978526;28;20477;-70
2021/05/24 09:49:03;;;;;;;7.22;1.17;;;;;;;22.61;30.64;100803.16;4982058;28;20093;-72
2021/05/24 09:51:33;;;;;;;3.45;0.73;;;;;;;22.47;30.48;100793.06;5055413;28;20042;-72
2021/05/24 09:54:05;;;;;;;2.25;0.60;;;;;;;21.65;31.84;100798.00;5000865;28;20096;-69
2021/05/24 09:56:34;;;;;;;1.60;0.63;;;;;;;21.99;30.60;100783.78;4999509;28;20101;-71
2021/05/24 09:59:07;;;;;;;3.83;0.82;;;;;;;21.91;31.29;100787.28;5001734;28;20724;-71
2021/05/24 10:01:38;;;;;;;2.92;0.70;;;;;;;22.17;31.09;100771.16;5000218;28;20064;-70
2021/05/24 10:04:06;;;;;;;2.47;0.65;;;;;;;22.42;31.22;100774.75;4950186;28;20083;-72
2021/05/24 10:06:34;;;;;;;2.55;0.88;;;;;;;22.15;30.99;100773.16;5003407;28;20058;-68
2021/05/24 10:09:05;;;;;;;2.70;0.70;;;;;;;22.12;31.31;100762.78;4997465;28;20060;-71
2021/05/24 10:11:34;;;;;;;1.20;0.57;;;;;;;22.27;31.57;100762.97;4987890;28;20049;-69
2021/05/24 10:14:02;;;;;;;1.42;0.60;;;;;;;22.33;31.54;100767.69;4998236;28;20140;-70
2021/05/24 10:16:35;;;;;;;3.35;0.75;;;;;;;22.44;31.63;100753.97;4971714;28;20607;-71
2021/05/24 10:19:04;;;;;;;2.38;0.70;;;;;;;22.77;30.34;100748.66;5003474;28;20428;-70
2021/05/24 10:21:32;;;;;;;2.42;0.60;;;;;;;22.83;29.39;100741.78;5001825;28;20565;-72
2021/05/24 10:23:59;;;;;;;2.95;0.70;;;;;;;23.34;29.27;100740.63;4987176;28;20871;-70
2021/05/24 10:26:27;;;;;;;1.30;0.70;;;;;;;23.06;27.99;100740.16;5002682;28;20053;-71
2021/05/24 10:28:55;;;;;;;4.53;0.70;;;;;;;22.60;29.84;100737.06;4987866;28;20054;-71
2021/05/24 10:31:24;;;;;;;1.02;0.60;;;;;;;22.07;30.18;100737.44;4985635;28;20062;-70
2021/05/24 10:33:52;;;;;;;1.83;0.60;;;;;;;21.58;31.51;100723.81;4982724;28;20050;-71
2021/05/24 10:36:29;;;;;;;4.15;0.85;;;;;;;22.00;31.49;100729.19;5002459;28;20050;-71
2021/05/24 10:39:21;;;;;;;1.42;0.57;;;;;;;21.77;31.10;100723.56;5021813;23;20052;-72
2021/05/24 10:41:54;;;;;;;6.55;0.82;;;;;;;21.44;30.53;100709.16;5070877;28;20135;-72
2021/05/24 10:44:23;;;;;;;1.33;0.70;;;;;;;21.62;30.36;100715.28;5068871;28;20044;-71
2021/05/24 10:46:52;;;;;;;2.55;0.90;;;;;;;22.07;29.84;100710.63;5063738;28;20046;-71
2021/05/24 10:49:25;;;;;;;1.90;0.65;;;;;;;22.63;29.12;100691.13;5044980;28;20051;-70
2021/05/24 10:52:08;;;;;;;2.85;0.73;;;;;;;22.21;29.09;100691.25;5051955;28;20288;-71
2021/05/24 10:54:41;;;;;;;1.08;0.55;;;;;;;22.39;28.56;100685.75;5052243;28;20510;-70
2021/05/24 10:57:12;;;;;;;5.90;0.73;;;;;;;21.85;29.13;100674.53;5047187;28;20054;-71
2021/05/24 10:59:39;;;;;;;4.90;0.93;;;;;;;21.55;30.17;100679.41;5059252;28;20044;-70
2021/05/24 11:02:08;;;;;;;2.63;0.85;;;;;;;21.41;29.12;100672.81;5079812;28;20057;-71
2021/05/24 11:04:57;;;;;;;2.92;0.73;;;;;;;21.27;29.01;100678.72;5061991;28;20071;-71
2021/05/24 11:07:42;;;;;;;2.10;0.88;;;;;;;21.30;29.84;100667.72;5043225;28;20139;-70
2021/05/24 11:10:19;;;;;;;1.38;0.80;;;;;;;21.83;29.69;100663.94;5035208;28;20052;-70
2021/05/24 11:12:49;;;;;;;3.28;0.90;;;;;;;21.72;28.22;100662.41;5055520;28;20072;-70
2021/05/24 11:15:22;;;;;;;2.78;0.60;;;;;;;21.72;27.99;100662.41;5055722;28;20049;-70
2021/05/24 11:17:59;;;;;;;1.30;0.60;;;;;;;21.33;29.62;100677.28;5044275;28;20078;-70
2021/05/24 11:20:50;;;;;;;2.40;0.70;;;;;;;21.18;30.15;100668.97;5062336;28;20040;-70
2021/05/24 11:26:16;;;;;;;1.45;0.90;;;;;;;20.49;32.36;100657.25;5047300;28;20040;-71
2021/05/24 11:28:43;;;;;;;2.38;0.80;;;;;;;21.03;32.24;100658.00;5061721;28;20053;-71
2021/05/24 11:31:12;;;;;;;5.28;0.80;;;;;;;21.49;32.03;100639.88;5074782;28;20051;-70
2021/05/24 11:33:47;;;;;;;3.13;0.70;;;;;;;21.62;32.13;100634.91;5081710;28;20139;-70
2021/05/24 11:36:20;;;;;;;1.88;0.98;;;;;;;22.15;31.50;100624.84;5077400;28;20048;-70
2021/05/24 11:39:05;;;;;;;1.83;0.75;;;;;;;21.95;31.98;100630.47;5076490;28;20079;-69
2021/05/24 11:41:34;;;;;;;2.38;1.10;;;;;;;21.58;31.17;100620.16;5069978;28;20075;-71
2021/05/24 11:44:03;;;;;;;3.08;0.90;;;;;;;21.68;30.46;100617.34;5053401;28;20075;-70
2021/05/24 11:46:47;;;;;;;3.45;1.02;;;;;;;21.06;30.89;100617.53;5035376;28;20588;-71
2021/05/24 11:49:18;;;;;;;3.70;1.10;;;;;;;21.08;31.09;100618.22;5065519;28;20060;-70
2021/05/24 11:51:46;;;;;;;5.28;0.80;;;;;;;21.10;31.44;100618.06;5051714;28;20052;-75
2021/05/24 11:54:19;;;;;;;5.97;0.80;;;;;;;20.97;31.96;100616.63;5050433;28;20065;-72